Time;durP1;ratioP1;P1;durP2;ratioP2;P2;SDS_P1;SDS_P2;PMS_P1;PMS_P2;Temp;Humidity;BMP_temperature;BMP_pressure;BME280_temperature;BME280_humidity;BME280_pressure;Samples;Min_cycle;Max_cycle;Signal;HPM_P1;HPM_P2
2021/09/26 00:00:09;;;;;;;16.25;8.70;;;;;;;15.85;63.92;101644.11;1712627;83;25764;-62
2021/09/26 00:02:45;;;;;;;18.55;8.93;;;;;;;15.76;63.84;101640.42;1712418;82;25793;-63
2021/09/26 00:05:14;;;;;;;15.08;8.63;;;;;;;15.69;64.09;101647.42;1712457;83;27545;-63
2021/09/26 00:07:41;;;;;;;22.20;8.43;;;;;;;15.61;64.38;101641.88;1712420;82;26013;-63
2021/09/26 00:10:11;;;;;;;22.27;8.58;;;;;;;15.49;64.62;101644.80;1711929;83;25875;-62
2021/09/26 00:12:39;;;;;;;16.25;8.03;;;;;;;15.42;64.78;101645.00;1712719;83;26488;-63
2021/09/26 00:15:14;;;;;;;14.73;7.53;;;;;;;15.33;65.11;101636.39;1710596;82;25850;-63
2021/09/26 00:17:42;;;;;;;17.65;8.20;;;;;;;15.27;65.16;101637.86;1678878;84;27207;-63
2021/09/26 00:20:11;;;;;;;15.78;7.00;;;;;;;15.21;65.58;101638.94;1706029;83;25910;-63
2021/09/26 00:22:38;;;;;;;16.45;7.83;;;;;;;15.15;66.02;101631.72;1709292;83;25907;-63
2021/09/26 00:25:07;;;;;;;15.10;7.42;;;;;;;15.13;66.29;101637.81;1709348;83;25924;-63
2021/09/26 00:27:34;;;;;;;17.15;8.35;;;;;;;15.13;66.71;101639.65;1709465;83;26432;-63
2021/09/26 00:30:05;;;;;;;23.98;8.23;;;;;;;15.10;66.60;101629.96;1709846;83;27467;-63
2021/09/26 00:32:31;;;;;;;14.10;6.85;;;;;;;15.11;66.53;101629.45;1709232;83;25845;-63
2021/09/26 00:34:59;;;;;;;16.90;7.58;;;;;;;15.11;66.61;101629.45;1709738;83;25844;-63
2021/09/26 00:37:26;;;;;;;11.63;6.47;;;;;;;15.09;66.50;101632.83;1709206;83;26745;-63
2021/09/26 00:39:52;;;;;;;14.45;6.95;;;;;;;15.10;67.26;101633.19;1709821;83;26148;-63
2021/09/26 00:42:20;;;;;;;15.68;6.97;;;;;;;15.07;66.73;101629.41;1718047;83;27482;-63
2021/09/26 00:44:47;;;;;;;17.35;7.58;;;;;;;15.06;66.98;101631.75;1708560;83;25893;-63
2021/09/26 00:47:14;;;;;;;13.93;6.83;;;;;;;14.98;67.10;101633.81;1682412;83;25696;-63
2021/09/26 00:49:42;;;;;;;12.40;6.28;;;;;;;14.95;66.95;101634.97;1723860;83;25784;-63
2021/09/26 00:52:09;;;;;;;11.55;6.28;;;;;;;14.97;67.00;101632.97;1728976;83;25294;-62
2021/09/26 00:54:38;;;;;;;13.03;6.53;;;;;;;15.04;67.10;101637.33;1729324;82;27994;-62
2021/09/26 00:57:06;;;;;;;17.02;6.72;;;;;;;15.10;67.09;101638.61;1728798;83;25725;-62
2021/09/26 00:59:33;;;;;;;12.65;6.30;;;;;;;15.17;67.03;101633.80;1729325;83;25781;-62
2021/09/26 01:02:00;;;;;;;15.40;7.33;;;;;;;15.22;66.68;101637.42;1713829;83;25834;-62
2021/09/26 01:04:28;;;;;;;17.45;6.50;;;;;;;15.25;66.61;101636.27;1710925;83;25933;-62
2021/09/26 01:07:12;;;;;;;15.35;6.30;;;;;;;15.30;66.46;101637.55;1710581;83;27515;-63
2021/09/26 01:10:11;;;;;;;30.20;7.85;;;;;;;15.36;66.27;101635.27;1706416;83;25796;-62
2021/09/26 01:13:07;;;;;;;17.35;7.72;;;;;;;15.37;66.12;101628.34;1710571;83;25733;-63
2021/09/26 01:16:12;;;;;;;13.25;7.50;;;;;;;15.34;66.14;101637.63;1706758;83;25781;-63
2021/09/26 01:19:06;;;;;;;;;;;;;;;15.33;65.93;101637.75;1709220;84;27323;-63
2021/09/26 01:22:05;;;;;;;10.55;5.33;;;;;;;15.23;65.90;101632.88;1706247;84;27852;-62
2021/09/26 01:25:00;;;;;;;15.85;6.20;;;;;;;15.16;65.75;101638.02;1656866;86;25775;-62
2021/09/26 01:28:03;;;;;;;14.28;6.55;;;;;;;15.12;65.74;101629.81;1645310;86;25709;-63
2021/09/26 01:31:09;;;;;;;13.95;6.22;;;;;;;15.10;65.80;101629.13;1662574;83;25812;-62
2021/09/26 01:33:47;;;;;;;12.88;6.25;;;;;;;15.08;65.87;101641.95;1695434;84;25766;-62
2021/09/26 01:36:25;;;;;;;14.85;6.37;;;;;;;15.05;65.95;101635.45;1699223;84;28179;-63
2021/09/26 01:39:00;;;;;;;13.10;5.92;;;;;;;15.00;66.10;101629.11;1688894;84;25519;-62
2021/09/26 01:41:50;;;;;;;11.18;6.12;;;;;;;14.94;66.13;101630.55;1682392;84;25820;-62
2021/09/26 01:44:22;;;;;;;16.90;6.37;;;;;;;14.92;66.34;101630.34;1683822;85;26081;-62
2021/09/26 01:46:54;;;;;;;12.98;5.75;;;;;;;14.91;66.92;101634.92;1692135;84;25721;-62
2021/09/26 01:49:35;;;;;;;11.85;5.95;;;;;;;14.90;67.14;101633.20;1689796;84;27450;-62
2021/09/26 01:52:09;;;;;;;10.88;5.90;;;;;;;14.93;67.58;101639.66;1682252;85;25936;-62
2021/09/26 01:54:34;;;;;;;14.35;5.95;;;;;;;14.91;67.66;101632.20;1684197;85;25787;-62
2021/09/26 01:57:01;;;;;;;11.15;6.33;;;;;;;14.93;67.53;101632.05;1658464;85;25749;-62
2021/09/26 01:59:29;;;;;;;12.93;5.53;;;;;;;14.92;67.72;101627.63;1684210;85;25728;-63
2021/09/26 02:01:58;;;;;;;10.20;5.15;;;;;;;14.94;68.18;101637.83;1709583;83;27453;-63
2021/09/26 02:04:26;;;;;;;9.30;5.35;;;;;;;14.92;67.96;101640.70;1713203;82;25928;-63
2021/09/26 02:06:54;;;;;;;10.20;5.05;;;;;;;14.92;68.04;101637.11;1713495;83;25795;-63
2021/09/26 02:09:23;;;;;;;17.12;6.05;;;;;;;14.94;68.03;101636.48;1713035;82;25688;-63
2021/09/26 02:11:50;;;;;;;11.68;5.62;;;;;;;14.98;67.94;101637.88;1713394;83;25747;-63
2021/09/26 02:14:18;;;;;;;8.78;5.47;;;;;;;15.06;67.95;101648.84;1713185;83;27474;-63
2021/09/26 02:16:47;;;;;;;10.95;5.30;;;;;;;15.14;67.87;101653.08;1737987;81;25744;-62
2021/09/26 02:19:14;;;;;;;11.18;5.20;;;;;;;15.21;67.68;101651.97;1688855;83;26230;-62
2021/09/26 02:21:43;;;;;;;11.35;5.00;;;;;;;15.24;67.68;101647.63;1679769;84;25755;-63
2021/09/26 02:24:10;;;;;;;12.98;5.90;;;;;;;15.26;67.37;101646.12;1681022;85;25759;-62
2021/09/26 02:26:37;;;;;;;12.55;5.45;;;;;;;15.29;67.40;101644.48;1679822;85;27459;-62
2021/09/26 02:29:04;;;;;;;10.40;5.17;;;;;;;15.32;67.23;101650.46;1709545;82;25788;-63
2021/09/26 02:31:31;;;;;;;9.18;5.62;;;;;;;15.32;66.88;101649.11;1679826;84;25760;-62
2021/09/26 02:33:58;;;;;;;9.33;5.22;;;;;;;15.32;66.66;101651.82;1679504;85;25705;-63
2021/09/26 02:36:25;;;;;;;17.82;5.50;;;;;;;15.29;66.49;101641.25;1722149;83;25804;-63
2021/09/26 02:38:52;;;;;;;13.65;5.75;;;;;;;15.23;66.52;101643.72;1722028;83;27484;-62
2021/09/26 02:41:43;;;;;;;13.22;6.25;;;;;;;15.21;66.64;101645.20;1722072;82;25517;-63
2021/09/26 02:44:55;;;;;;;8.65;5.05;;;;;;;15.20;66.47;101645.36;1663149;84;25741;-63
2021/09/26 02:47:27;;;;;;;12.75;5.83;;;;;;;15.15;66.44;101645.27;1673715;84;25834;-63
2021/09/26 02:49:55;;;;;;;14.30;5.00;;;;;;;15.11;66.44;101651.13;1719644;82;25909;-64
2021/09/26 02:52:23;;;;;;;9.28;3.80;;;;;;;15.06;66.75;101650.20;1706880;83;27535;-63
2021/09/26 02:54:51;;;;;;;9.33;4.25;;;;;;;15.03;66.32;101651.87;1706610;84;25806;-63
2021/09/26 02:57:19;;;;;;;9.83;4.30;;;;;;;14.99;66.13;101651.30;1706017;84;25750;-63
2021/09/26 02:59:46;;;;;;;12.53;4.08;;;;;;;15.01;65.95;101655.22;1706310;84;26084;-63
2021/09/26 03:02:13;;;;;;;7.05;4.15;;;;;;;14.98;65.42;101650.07;1707571;84;25766;-62
2021/09/26 03:04:45;;;;;;;10.20;4.75;;;;;;;14.96;64.28;101658.36;1707759;84;27476;-62
2021/09/26 03:07:13;;;;;;;5.85;3.72;;;;;;;14.97;63.97;101649.75;1707282;82;25768;-63
2021/09/26 03:09:41;;;;;;;6.08;3.33;;;;;;;14.97;63.21;101654.66;1707595;83;25779;-62
2021/09/26 03:12:19;;;;;;;7.05;4.10;;;;;;;14.99;63.20;101657.20;1707665;84;26244;-63
2021/09/26 03:14:47;;;;;;;7.53;3.85;;;;;;;14.99;62.80;101654.02;1707605;84;25787;-62
2021/09/26 03:17:14;;;;;;;9.98;3.95;;;;;;;15.01;63.01;101649.31;1699078;82;27290;-62
2021/09/26 03:19:42;;;;;;;6.87;3.67;;;;;;;15.07;62.99;101649.72;1701371;83;25733;-63
2021/09/26 03:22:11;;;;;;;8.95;4.10;;;;;;;15.10;62.96;101653.00;1708440;83;25728;-63
2021/09/26 03:24:39;;;;;;;7.20;3.98;;;;;;;15.16;62.97;101652.41;1709207;83;25830;-63
2021/09/26 03:27:10;;;;;;;9.53;4.40;;;;;;;15.21;63.15;101658.75;1709418;83;25755;-63
2021/09/26 03:29:41;;;;;;;13.62;5.50;;;;;;;15.23;63.02;101655.92;1709350;83;28181;-62
2021/09/26 03:32:09;;;;;;;8.05;4.35;;;;;;;15.23;63.74;101652.69;1709407;83;25970;-62
2021/09/26 03:34:37;;;;;;;14.25;5.33;;;;;;;15.23;63.87;101653.20;1709405;83;25620;-63
2021/09/26 03:37:06;;;;;;;9.10;5.30;;;;;;;15.20;64.51;101647.55;1709559;83;25777;-63
2021/09/26 03:39:33;;;;;;;15.08;4.75;;;;;;;15.17;64.73;101654.13;1709177;83;25814;-62
2021/09/26 03:42:02;;;;;;;12.05;4.67;;;;;;;15.13;65.05;101654.08;1715168;83;27469;-63
2021/09/26 03:44:29;;;;;;;9.20;4.35;;;;;;;15.11;65.14;101657.42;1717957;83;25744;-63
2021/09/26 03:46:56;;;;;;;11.33;4.92;;;;;;;15.10;65.41;101657.06;1689622;84;25702;-62
2021/09/26 03:49:24;;;;;;;7.10;4.17;;;;;;;15.10;65.68;101656.22;1698572;84;26278;-63
2021/09/26 03:51:51;;;;;;;11.90;4.80;;;;;;;15.11;65.84;101657.42;1713618;83;25526;-63
2021/09/26 03:54:19;;;;;;;5.95;3.95;;;;;;;15.12;65.94;101659.62;1667528;85;27489;-62
2021/09/26 03:56:51;;;;;;;7.47;4.47;;;;;;;15.14;66.26;101656.27;1707751;83;26121;-61
2021/09/26 03:59:19;;;;;;;8.50;4.17;;;;;;;15.16;66.31;101661.05;1707659;84;25738;-62
2021/09/26 04:01:47;;;;;;;9.50;4.62;;;;;;;15.17;66.32;101658.19;1709576;83;26121;-62
2021/09/26 04:04:15;;;;;;;7.28;4.58;;;;;;;15.24;66.40;101660.34;1709598;83;25884;-63
2021/09/26 04:06:44;;;;;;;9.30;4.17;;;;;;;15.29;66.30;101662.10;1709204;83;27475;-63
2021/09/26 04:09:12;;;;;;;9.63;5.53;;;;;;;15.32;66.22;101665.89;1709180;83;25845;-63
2021/09/26 04:11:39;;;;;;;13.10;6.47;;;;;;;15.37;66.19;101665.45;1709567;83;25733;-62
2021/09/26 04:14:07;;;;;;;26.07;13.83;;;;;;;15.39;65.47;101662.07;1709744;83;25829;-63
2021/09/26 04:16:34;;;;;;;12.53;4.97;;;;;;;15.27;63.94;101658.67;1703833;83;26605;-63
2021/09/26 04:19:01;;;;;;;13.28;4.67;;;;;;;15.19;63.86;101662.12;1697102;84;27504;-63
2021/09/26 04:21:28;;;;;;;8.33;4.08;;;;;;;15.16;63.80;101670.02;1682878;85;25882;-63
2021/09/26 04:23:55;;;;;;;5.85;3.50;;;;;;;15.19;63.86;101672.97;1682670;85;25728;-62
2021/09/26 04:26:22;;;;;;;10.00;3.95;;;;;;;15.22;63.81;101671.82;1682967;85;25807;-62
2021/09/26 04:28:49;;;;;;;9.13;4.45;;;;;;;15.25;63.94;101672.38;1682442;84;25676;-62
2021/09/26 04:31:17;;;;;;;14.50;4.22;;;;;;;15.29;64.10;101681.08;1683435;85;27499;-63
2021/09/26 04:33:44;;;;;;;11.38;4.50;;;;;;;15.27;64.38;101678.52;1684231;85;25727;-62
2021/09/26 04:36:11;;;;;;;10.35;4.15;;;;;;;15.26;64.38;101674.09;1684366;85;25728;-63
2021/09/26 04:38:38;;;;;;;10.30;4.67;;;;;;;15.27;64.42;101672.23;1684389;85;26194;-63
2021/09/26 04:41:05;;;;;;;14.80;5.10;;;;;;;15.29;64.46;101674.30;1684541;85;25818;-63
2021/09/26 04:43:32;;;;;;;11.03;4.30;;;;;;;15.31;64.46;101676.38;1657752;83;28218;-63
2021/09/26 04:45:59;;;;;;;8.30;4.28;;;;;;;15.29;64.36;101682.43;1662887;85;25829;-62
2021/09/26 04:48:26;;;;;;;8.83;4.95;;;;;;;15.25;64.48;101678.29;1668513;83;25999;-62
2021/09/26 04:50:54;;;;;;;10.75;4.37;;;;;;;15.24;64.34;101681.52;1681973;85;25787;-62
2021/09/26 04:53:21;;;;;;;8.10;4.67;;;;;;;15.27;64.10;101679.88;1682388;85;25790;-63
2021/09/26 04:55:49;;;;;;;10.98;4.90;;;;;;;15.31;64.25;101678.57;1682019;83;27474;-63
2021/09/26 04:58:16;;;;;;;10.18;3.80;;;;;;;15.38;64.41;101679.33;1664116;85;25953;-63
2021/09/26 05:00:46;;;;;;;12.65;4.12;;;;;;;15.40;63.87;101679.56;1682069;85;25875;-63
2021/09/26 05:03:14;;;;;;;13.32;4.45;;;;;;;15.47;63.99;101683.40;1690143;83;25807;-63
2021/09/26 05:05:41;;;;;;;13.65;4.08;;;;;;;15.55;63.99;101688.11;1690867;83;25775;-64
2021/09/26 05:08:08;;;;;;;9.53;4.10;;;;;;;15.62;63.94;101687.86;1700378;83;28288;-63
2021/09/26 05:10:35;;;;;;;7.78;4.35;;;;;;;15.73;63.77;101684.63;1695671;83;25810;-63
2021/09/26 05:13:03;;;;;;;13.00;4.90;;;;;;;15.79;63.73;101690.80;1691469;83;25749;-63
2021/09/26 05:15:30;;;;;;;8.88;4.35;;;;;;;15.87;63.82;101684.16;1696765;83;26516;-63
2021/09/26 05:17:57;;;;;;;11.20;4.10;;;;;;;15.94;63.63;101692.05;1709494;83;25808;-63
2021/09/26 05:20:24;;;;;;;7.28;4.35;;;;;;;15.97;63.24;101693.61;1711215;82;27206;-63
2021/09/26 05:22:52;;;;;;;9.18;4.70;;;;;;;15.97;62.97;101696.33;1709229;83;27278;-63
2021/09/26 05:25:20;;;;;;;8.50;4.17;;;;;;;15.98;63.05;101693.97;1709678;83;26470;-63
2021/09/26 05:27:47;;;;;;;8.70;4.08;;;;;;;16.00;62.97;101700.63;1709566;83;26198;-63
2021/09/26 05:30:14;;;;;;;9.55;4.00;;;;;;;16.03;62.79;101700.30;1709613;83;25814;-63
2021/09/26 05:32:41;;;;;;;14.35;4.95;;;;;;;16.02;62.35;101705.38;1705635;83;27458;-63
2021/09/26 05:35:09;;;;;;;12.80;5.17;;;;;;;15.99;62.24;101701.63;1709789;83;25781;-64
2021/09/26 05:37:36;;;;;;;10.45;4.70;;;;;;;16.00;62.24;101708.77;1709421;82;25832;-63
2021/09/26 05:40:05;;;;;;;7.40;4.40;;;;;;;16.01;61.92;101703.66;1709495;83;25749;-63
2021/09/26 05:42:34;;;;;;;9.95;4.70;;;;;;;16.03;61.93;101712.52;1709435;83;25970;-63
2021/09/26 05:45:00;;;;;;;12.03;4.67;;;;;;;16.02;62.10;101713.03;1709456;83;27469;-63
2021/09/26 05:47:27;;;;;;;12.25;4.40;;;;;;;16.02;61.96;101719.81;1707478;84;26523;-64
2021/09/26 05:49:54;;;;;;;12.03;4.90;;;;;;;16.02;62.02;101717.59;1724077;83;25776;-63
2021/09/26 05:52:21;;;;;;;12.80;4.85;;;;;;;16.03;62.10;101722.02;1706826;83;25846;-64
2021/09/26 05:54:48;;;;;;;15.40;7.45;;;;;;;16.03;61.88;101714.75;1706580;83;25806;-64
2021/09/26 05:57:15;;;;;;;12.40;5.22;;;;;;;16.06;61.94;101721.73;1706598;83;27463;-63
2021/09/26 05:59:42;;;;;;;12.55;4.62;;;;;;;16.07;61.92;101723.44;1706457;83;25847;-64
2021/09/26 06:02:10;;;;;;;15.00;5.12;;;;;;;16.09;61.87;101720.92;1706130;84;25818;-63
2021/09/26 06:04:38;;;;;;;10.38;4.55;;;;;;;16.13;61.75;101729.63;1706847;82;26318;-64
2021/09/26 06:07:05;;;;;;;9.60;5.20;;;;;;;16.15;61.65;101725.39;1707820;83;25828;-64
2021/09/26 06:09:33;;;;;;;8.90;4.95;;;;;;;16.19;61.68;101723.58;1709969;82;27499;-63
2021/09/26 06:12:00;;;;;;;9.15;4.58;;;;;;;16.24;61.72;101724.00;1707744;84;25799;-63
2021/09/26 06:14:27;;;;;;;11.43;4.45;;;;;;;16.31;61.61;101724.75;1709604;83;25693;-63
2021/09/26 06:16:54;;;;;;;8.68;5.42;;;;;;;16.37;61.57;101730.92;1706446;83;26585;-63
2021/09/26 06:19:22;;;;;;;8.55;5.37;;;;;;;16.42;61.62;101734.91;1679476;85;25855;-63
2021/09/26 06:21:48;;;;;;;9.15;5.00;;;;;;;16.47;61.48;101729.02;1709457;83;27471;-64
2021/09/26 06:24:15;;;;;;;10.40;5.00;;;;;;;16.51;61.29;101738.59;1709353;83;25838;-63
2021/09/26 06:26:42;;;;;;;11.30;6.00;;;;;;;16.55;61.29;101735.91;1709468;83;26512;-63
2021/09/26 06:29:10;;;;;;;10.78;5.28;;;;;;;16.57;61.17;101741.20;1709614;83;25782;-63
2021/09/26 06:31:37;;;;;;;13.65;5.60;;;;;;;16.57;61.09;101741.20;1709921;83;25766;-63
2021/09/26 06:34:04;;;;;;;9.90;5.42;;;;;;;16.57;60.91;101747.99;1710018;83;27477;-63
2021/09/26 06:36:32;;;;;;;11.03;5.10;;;;;;;16.54;60.55;101747.77;1709737;83;25833;-63
2021/09/26 06:38:59;;;;;;;11.48;4.65;;;;;;;16.56;60.64;101754.43;1709564;83;25747;-63
2021/09/26 06:41:27;;;;;;;9.85;4.55;;;;;;;16.63;60.78;101750.61;1711908;82;26298;-63
2021/09/26 06:43:55;;;;;;;19.20;4.62;;;;;;;16.65;60.27;101749.44;1729697;82;25831;-63
2021/09/26 06:46:22;;;;;;;14.45;4.50;;;;;;;16.72;60.32;101748.30;1720250;82;27487;-63
2021/09/26 06:48:49;;;;;;;13.08;4.20;;;;;;;16.83;60.60;101745.89;1717210;82;25722;-63
2021/09/26 06:51:16;;;;;;;10.05;4.45;;;;;;;16.95;60.26;101753.34;1727302;83;25769;-63
2021/09/26 06:53:43;;;;;;;12.60;5.20;;;;;;;17.06;60.05;101754.48;1727160;83;25899;-63
2021/09/26 06:56:09;;;;;;;14.23;4.62;;;;;;;17.12;59.06;101765.25;1719904;82;25762;-63
2021/09/26 06:58:36;;;;;;;7.33;4.65;;;;;;;17.15;59.25;101762.20;1718218;82;27475;-63
2021/09/26 07:01:03;;;;;;;15.35;4.95;;;;;;;17.08;58.16;101765.20;1717899;82;25766;-63
2021/09/26 07:03:31;;;;;;;11.18;4.87;;;;;;;17.10;58.45;101768.10;1713212;82;25826;-63
2021/09/26 07:05:58;;;;;;;11.03;4.80;;;;;;;17.12;58.59;101770.17;1713620;82;25832;-63
2021/09/26 07:08:26;;;;;;;13.83;5.10;;;;;;;17.14;58.47;101771.36;1713649;82;26550;-63
2021/09/26 07:10:52;;;;;;;16.27;5.58;;;;;;;17.12;58.16;101766.61;1717524;82;28276;-63
2021/09/26 07:13:20;;;;;;;16.77;6.12;;;;;;;17.14;58.38;101772.72;1721374;82;27192;-63
2021/09/26 07:15:47;;;;;;;11.50;5.17;;;;;;;17.15;58.10;101768.51;1721870;82;26473;-63
2021/09/26 07:18:13;;;;;;;10.23;4.78;;;;;;;17.15;57.91;101778.52;1712654;82;25815;-63
2021/09/26 07:20:41;;;;;;;11.33;4.45;;;;;;;17.17;58.21;101776.50;1714443;83;25814;-63
2021/09/26 07:23:09;;;;;;;13.22;4.78;;;;;;;17.18;58.05;101780.94;1690632;84;27403;-63
2021/09/26 07:25:36;;;;;;;14.30;5.12;;;;;;;17.16;57.95;101782.95;1678166;85;26607;-63
2021/09/26 07:28:05;;;;;;;10.43;5.45;;;;;;;17.18;58.21;101776.33;1688566;84;25747;-63
2021/09/26 07:30:32;;;;;;;14.13;5.30;;;;;;;17.25;58.28;101780.66;1678440;85;26108;-63
2021/09/26 07:32:59;;;;;;;12.05;5.17;;;;;;;17.32;58.33;101781.73;1672221;85;25807;-63
2021/09/26 07:35:26;;;;;;;16.97;5.92;;;;;;;17.38;58.17;101781.62;1678503;85;27512;-63
2021/09/26 07:37:54;;;;;;;11.65;4.90;;;;;;;17.41;57.89;101783.16;1682285;83;25908;-63
2021/09/26 07:40:21;;;;;;;13.98;5.00;;;;;;;17.46;57.76;101784.92;1667693;86;25776;-63
2021/09/26 07:42:48;;;;;;;13.10;5.03;;;;;;;17.49;57.73;101782.74;1683533;85;26690;-63
2021/09/26 07:45:15;;;;;;;11.90;5.10;;;;;;;17.56;57.87;101787.06;1684050;85;25762;-62
2021/09/26 07:47:43;;;;;;;13.83;4.92;;;;;;;17.64;57.72;101784.89;1682823;85;27483;-63
2021/09/26 07:50:11;;;;;;;10.03;4.62;;;;;;;17.71;57.75;101798.72;1683628;85;26555;-63
2021/09/26 07:52:38;;;;;;;9.93;4.28;;;;;;;17.66;57.14;101800.03;1683628;85;25690;-63
2021/09/26 07:55:08;;;;;;;13.38;5.60;;;;;;;17.70;57.37;101807.41;1683964;85;25774;-63
2021/09/26 07:57:35;;;;;;;10.32;4.03;;;;;;;17.79;57.54;101802.38;1683535;85;26020;-63
2021/09/26 08:00:05;;;;;;;10.65;4.40;;;;;;;17.79;56.55;101809.18;1683506;85;46327;-63
2021/09/26 08:02:34;;;;;;;11.73;4.42;;;;;;;17.76;56.38;101808.61;1683707;84;25816;-64
2021/09/26 08:05:01;;;;;;;18.37;4.65;;;;;;;17.74;56.37;101809.30;1684456;85;25757;-63
2021/09/26 08:07:29;;;;;;;10.38;4.37;;;;;;;17.70;56.31;101801.09;1684558;85;25735;-63
2021/09/26 08:09:57;;;;;;;10.20;4.72;;;;;;;17.71;56.30;101796.00;1684305;84;25943;-63
2021/09/26 08:12:24;;;;;;;9.58;4.53;;;;;;;17.70;56.11;101796.52;1684200;84;27525;-63
2021/09/26 08:14:51;;;;;;;10.63;4.22;;;;;;;17.72;56.32;101794.47;1684200;84;25823;-63
2021/09/26 08:17:18;;;;;;;11.43;4.40;;;;;;;17.75;56.40;101803.69;1692344;83;25795;-63
2021/09/26 08:19:45;;;;;;;7.95;4.45;;;;;;;17.78;56.44;101811.55;1711023;82;27688;-63
2021/09/26 08:22:12;;;;;;;12.07;5.37;;;;;;;17.87;56.49;101811.09;1716160;82;25815;-63
2021/09/26 08:24:40;;;;;;;8.78;4.70;;;;;;;17.92;56.25;101801.08;1728249;82;27489;-63
2021/09/26 08:27:07;;;;;;;16.80;5.00;;;;;;;17.97;56.11;101799.63;1712297;82;25735;-62
2021/09/26 08:29:34;;;;;;;11.78;4.70;;;;;;;18.00;56.00;101798.44;1712394;83;25732;-62
2021/09/26 08:32:02;;;;;;;10.95;4.40;;;;;;;18.08;56.21;101807.19;1712786;82;26169;-62
2021/09/26 08:34:30;;;;;;;12.10;5.00;;;;;;;18.17;56.01;101799.90;1712534;82;25805;-62
2021/09/26 08:36:58;;;;;;;8.23;4.08;;;;;;;18.26;55.95;101803.89;1712932;83;27485;-61
2021/09/26 08:39:24;;;;;;;12.07;4.03;;;;;;;18.30;54.92;101808.50;1712975;83;25811;-64
2021/09/26 08:41:53;;;;;;;6.67;4.25;;;;;;;18.35;54.69;101806.66;1719784;83;26035;-63
2021/09/26 08:44:27;;;;;;;11.60;4.47;;;;;;;18.41;54.82;101810.08;1711865;83;25764;-63
2021/09/26 08:46:56;;;;;;;12.82;4.62;;;;;;;18.48;54.34;101811.12;1688075;83;25704;-62
2021/09/26 08:49:25;;;;;;;7.67;4.25;;;;;;;18.53;54.15;101800.61;1700639;83;27565;-63
2021/09/26 08:51:54;;;;;;;6.45;4.20;;;;;;;18.63;54.29;101796.37;1711844;82;25823;-64
2021/09/26 08:54:21;;;;;;;13.05;4.33;;;;;;;18.76;54.30;101799.52;1711811;83;25738;-63
2021/09/26 08:56:49;;;;;;;7.45;4.15;;;;;;;18.89;53.82;101794.95;1711899;83;25751;-64
2021/09/26 08:59:16;;;;;;;7.78;4.12;;;;;;;18.97;53.35;101792.77;1711729;83;25649;-63
2021/09/26 09:01:44;;;;;;;12.23;4.00;;;;;;;19.07;53.17;101792.63;1711398;83;28137;-64
2021/09/26 09:04:11;;;;;;;10.88;4.12;;;;;;;19.17;53.01;101797.42;1711757;83;25806;-63
2021/09/26 09:06:45;;;;;;;10.35;4.47;;;;;;;19.29;52.70;101795.22;1711852;82;25710;-64
2021/09/26 09:09:20;;;;;;;7.35;4.22;;;;;;;19.45;52.60;101793.02;1712051;83;25768;-62
2021/09/26 09:12:01;;;;;;;16.45;4.58;;;;;;;19.61;52.27;101796.23;1711939;83;25859;-64
2021/09/26 09:14:58;;;;;;;8.85;4.10;;;;;;;19.75;51.87;101793.86;1712706;83;27480;-64
2021/09/26 09:17:32;;;;;;;6.47;3.87;;;;;;;19.84;51.02;101789.56;1710718;82;26533;-63
2021/09/26 09:20:20;;;;;;;11.83;4.28;;;;;;;20.03;51.26;101793.51;1701034;84;25752;-63
2021/09/26 09:22:52;;;;;;;10.28;3.98;;;;;;;20.18;51.27;101791.75;1700881;84;26113;-62
2021/09/26 09:25:41;;;;;;;14.95;3.72;;;;;;;20.43;50.82;101793.03;1700426;83;25792;-63
2021/09/26 09:28:26;;;;;;;10.70;3.87;;;;;;;20.67;50.66;101788.47;1700436;83;27512;-63
2021/09/26 09:31:02;;;;;;;9.70;4.03;;;;;;;20.87;50.19;101791.14;1700924;84;25796;-63
2021/09/26 09:33:45;;;;;;;13.90;4.67;;;;;;;21.02;49.43;101789.02;1700857;83;25778;-63
2021/09/26 09:36:25;;;;;;;8.78;4.00;;;;;;;21.25;49.37;101791.24;1700814;84;25846;-63
2021/09/26 09:38:59;;;;;;;12.53;4.40;;;;;;;21.50;49.08;101792.41;1684020;84;25811;-63
2021/09/26 09:41:47;;;;;;;7.58;4.25;;;;;;;21.52;47.99;101796.31;1654702;85;27519;-63
2021/09/26 09:44:15;;;;;;;9.25;4.28;;;;;;;21.54;47.95;101799.23;1690174;84;25824;-63
2021/09/26 09:46:46;;;;;;;7.58;4.45;;;;;;;21.64;47.68;101795.42;1684917;84;25822;-63
2021/09/26 09:49:17;;;;;;;7.78;4.15;;;;;;;21.52;47.05;101795.81;1700671;84;26510;-63
2021/09/26 09:51:58;;;;;;;10.60;4.55;;;;;;;21.56;47.48;101788.92;1678608;84;25802;-63
2021/09/26 09:54:35;;;;;;;7.28;4.12;;;;;;;21.51;47.10;101794.64;1701271;84;27533;-63
2021/09/26 09:57:25;;;;;;;10.10;4.62;;;;;;;21.45;47.12;101795.36;1678543;85;25769;-63
2021/09/26 09:59:52;;;;;;;10.53;4.10;;;;;;;21.34;47.48;101791.17;1700286;84;25814;-63
2021/09/26 10:02:19;;;;;;;9.70;4.65;;;;;;;21.24;47.56;101799.64;1677805;85;26442;-63
2021/09/26 10:04:48;;;;;;;10.68;3.90;;;;;;;21.23;47.66;101799.30;1678521;85;25858;-64
2021/09/26 10:07:22;;;;;;;15.05;4.50;;;;;;;21.18;47.41;101793.01;1699366;84;27461;-64
2021/09/26 10:09:50;;;;;;;12.23;4.12;;;;;;;21.17;47.69;101803.61;1677660;84;26508;-64
2021/09/26 10:12:28;;;;;;;7.05;4.03;;;;;;;21.15;47.94;101787.89;1678402;85;25786;-63
2021/09/26 10:14:59;;;;;;;14.20;4.62;;;;;;;21.19;48.16;101783.77;1676502;85;25985;-63
2021/09/26 10:17:26;;;;;;;18.85;4.65;;;;;;;21.36;48.65;101785.01;1678717;85;25854;-63
2021/09/26 10:19:54;;;;;;;13.38;4.08;;;;;;;21.44;48.45;101784.94;1709052;83;27478;-63
2021/09/26 10:22:23;;;;;;;15.53;4.85;;;;;;;21.49;47.61;101789.33;1709228;83;25785;-63
2021/09/26 10:24:57;;;;;;;9.73;3.95;;;;;;;21.52;47.44;101784.00;1709002;83;25769;-64
2021/09/26 10:27:30;;;;;;;10.93;4.37;;;;;;;21.56;47.74;101783.98;1709159;83;25824;-63
2021/09/26 10:30:05;;;;;;;6.78;4.15;;;;;;;21.60;47.43;101785.36;1709225;82;25955;-64
2021/09/26 10:32:33;;;;;;;10.03;4.75;;;;;;;21.63;47.14;101780.86;1708968;82;27473;-63
2021/09/26 10:35:02;;;;;;;7.80;4.40;;;;;;;21.71;47.22;101780.78;1708805;83;25739;-63
2021/09/26 10:37:30;;;;;;;12.23;4.95;;;;;;;21.80;46.80;101788.41;1708233;83;25871;-63
2021/09/26 10:39:58;;;;;;;15.10;4.25;;;;;;;21.88;47.08;101773.77;1709028;83;25817;-63
2021/09/26 10:42:25;;;;;;;11.75;4.67;;;;;;;22.04;47.39;101774.99;1709001;83;25741;-63
2021/09/26 10:44:58;;;;;;;10.23;4.53;;;;;;;22.20;47.02;101769.82;1709471;83;26901;-63
2021/09/26 10:47:28;;;;;;;18.05;5.72;;;;;;;22.29;45.94;101772.46;1709102;83;25740;-63
2021/09/26 10:50:13;;;;;;;16.02;5.42;;;;;;;22.37;46.46;101768.25;1710779;83;25773;-63
2021/09/26 10:52:46;;;;;;;31.62;6.25;;;;;;;22.48;46.08;101762.31;1709871;83;26270;-63
2021/09/26 10:55:29;;;;;;;18.25;6.28;;;;;;;22.67;46.18;101746.30;1708118;83;26170;-63
2021/09/26 10:58:15;;;;;;;21.15;5.72;;;;;;;22.99;45.78;101745.51;1709725;83;27492;-63
2021/09/26 11:00:54;;;;;;;16.90;5.83;;;;;;;23.40;45.71;101743.98;1680238;84;26526;-63
2021/09/26 11:03:41;;;;;;;18.42;5.55;;;;;;;23.86;44.57;101735.26;1707503;82;25887;-63
2021/09/26 11:06:28;;;;;;;18.75;5.08;;;;;;;23.85;42.94;101748.66;1709073;83;26189;-63
2021/09/26 11:09:00;;;;;;;12.88;4.62;;;;;;;24.02;43.62;101736.88;1701042;83;25946;-63
2021/09/26 11:11:46;;;;;;;16.52;4.70;;;;;;;24.51;41.75;101739.66;1694132;83;27468;-63
2021/09/26 11:14:15;;;;;;;13.13;5.22;;;;;;;24.76;40.86;101727.58;1721768;82;25828;-63
2021/09/26 11:16:56;;;;;;;15.05;5.17;;;;;;;25.06;40.67;101728.59;1712950;82;25763;-63
2021/09/26 11:19:26;;;;;;;17.92;4.40;;;;;;;25.52;39.45;101721.97;1679840;83;25820;-63
2021/09/26 11:22:08;;;;;;;9.65;3.50;;;;;;;25.63;37.77;101727.67;1679281;83;25828;-63
2021/09/26 11:24:40;;;;;;;13.85;4.53;;;;;;;25.62;38.62;101741.13;1633631;86;27048;-63
2021/09/26 11:27:17;;;;;;;16.52;4.42;;;;;;;25.80;38.93;101721.70;1678334;85;25785;-62
2021/09/26 11:29:50;;;;;;;7.20;4.85;;;;;;;25.90;38.08;101726.25;1681321;84;25824;-62
2021/09/26 11:32:25;;;;;;;12.70;4.83;;;;;;;25.88;37.10;101715.96;1705634;84;25768;-62
2021/09/26 11:34:57;;;;;;;8.18;4.67;;;;;;;25.86;37.29;101712.59;1680678;84;25809;-62